Araijuku, Japan

7:43 AM JST on April 28, 2017 (GMT +0900)
大田区 | | Change Station

Elev 0 ft 35.58 °N, 139.71 °E | Updated 5 minutes ago

Mostly Cloudy
Mostly Cloudy
60.8 °F
Feels Like 60.8 °F
N
0.6
Wind Variable Wind from East
Gusts 4.3 mph

Today
High -- | Low -- °F
--% Chance of Precip.
Yesterday
High -- | Low -- °F
Precip. -- in
Pressure 29.74 in
Visibility 6.2 miles
Clouds Few 1800 ft
Mostly Cloudy 2500 ft
Dew Point 45 °F
Humidity 55%
Rainfall 0.00 in
Snow Depth Not available.
4:53 AM 6:24 PM
Waxing Crescent, 3% visible
METAR RJTT 272230Z 34007KT 9999 FEW018 BKN025 14/05 Q1007 NOSIG RMK 1CU018 5CU025 A2975
Pressure 29.74 in
Visibility 6.2 miles
Clouds Few 1800 ft
Mostly Cloudy 2500 ft
Dew Point 45 °F
Humidity 55%
Rainfall 0.00 in
Snow Depth Not available.
4:53 AM 6:24 PM
Waxing Crescent, 3% visible
METAR RJTT 272230Z 34007KT 9999 FEW018 BKN025 14/05 Q1007 NOSIG RMK 1CU018 5CU025 A2975

Get Severe Weather Alerts

Thanks for signing up!

Be on the lookout for a verification email in your inbox.

You'll start receiving the daily forecast at 8 AM.

×

10-Day Weather Forecast

No radar image for this location.
×

Almanac

Astronomy

Apr. 28, 2017 Rise Set
Actual Time
Civil Twilight
Nautical Twilight
Astronomical Twilight
Moon
Length of Visible Light
Length of Day
Tomorrow will be .
, % of the Moon is Illuminated

Today's Extremes

Country Highs Country Lows

Community

WunderPhotos

WunderBlog® & News

Nearby

Air Quality

  Air Quality AQ Index Pollutant
Not available.

Snow Depth

Station Depth Elevation

Earthquake Activity

City Distance Mag. Time & Date
Minimum magnitude displayed is 2.5.

Coastal Water Temperatures

Place Temperature

Stations

Nearby Weather Stations

Station Location Temp. Windchill Dew Point Humidity Wind Precip. Elev Updated Type